Leoville, Canada
Current Conditions -  °F | °C
As of 6:00 PM on Thursday 30 Oct 2014 (Local Time) from CYLJ Reporting Station
Overcast Overcast  
Wind Chill: -7°   Ceiling: 1600
Heat Index: -1°   Visibility: 15mi
Dew Point: -5°   Wind: 14mph
Humidity: 75%   Direction: 160°SSE
Pressure: 30.35"   Gusts: 21mph
Location:  53.63°N, 107.55°W
Report Text: CYLJ 310000Z 16012G18KT 15SM OVC016 M01/M05 A3035 RMK SC8 SLP308
Loading
Personal Weather Stations






























Interactive Weather Map
Tropical Storm Tracking
New forecast layout! Learn more

10-Day Weather Forecast

Advertisements
Track Severe Weather on mobile